Time;durP1;ratioP1;P1;durP2;ratioP2;P2;SDS_P1;SDS_P2;PMS_P1;PMS_P2;Temp;Humidity;BMP_temperature;BMP_pressure;BME280_temperature;BME280_humidity;BME280_pressure;Samples;Min_cycle;Max_cycle;Signal;HPM_P1;HPM_P2
2023/02/06 00:02:04;;;;;;;15.73;8.60;;;3.20;88.40;;;;;;5084474;28;20044;-67
2023/02/06 00:04:34;;;;;;;14.70;8.65;;;3.20;88.40;;;;;;5088606;28;20398;-66
2023/02/06 00:07:01;;;;;;;15.63;9.23;;;3.20;88.40;;;;;;5089264;28;20052;-67
2023/02/06 00:09:28;;;;;;;15.18;8.23;;;3.20;88.40;;;;;;5089348;28;20402;-67
2023/02/06 00:11:55;;;;;;;15.82;8.50;;;3.20;88.40;;;;;;5087572;28;20355;-65
2023/02/06 00:14:22;;;;;;;14.10;8.35;;;3.20;88.40;;;;;;5087948;28;20040;-67
2023/02/06 00:16:56;;;;;;;13.38;8.13;;;3.30;88.30;;;;;;5089771;28;20148;-67
2023/02/06 00:19:23;;;;;;;12.60;7.82;;;3.20;88.30;;;;;;5085905;28;20049;-66
2023/02/06 00:21:57;;;;;;;13.75;7.72;;;3.20;88.30;;;;;;5085328;28;20566;-67
2023/02/06 00:24:24;;;;;;;12.35;7.18;;;3.20;88.30;;;;;;5086795;28;20048;-66
2023/02/06 00:26:51;;;;;;;12.45;6.82;;;3.30;88.30;;;;;;5087631;28;20052;-68
2023/02/06 00:29:18;;;;;;;12.18;6.78;;;3.20;88.30;;;;;;5086401;28;20060;-67
2023/02/06 00:31:46;;;;;;;13.77;7.40;;;3.20;88.30;;;;;;5089054;28;20431;-67
2023/02/06 00:34:13;;;;;;;11.23;7.05;;;3.20;88.30;;;;;;5087976;28;20052;-67
2023/02/06 00:36:47;;;;;;;13.30;7.63;;;3.20;88.40;;;;;;5087262;28;20074;-68
2023/02/06 00:39:19;;;;;;;11.00;6.78;;;3.20;88.30;;;;;;5086344;28;20063;-68
2023/02/06 00:41:46;;;;;;;12.18;7.15;;;3.20;88.20;;;;;;5086381;28;20071;-66
2023/02/06 00:44:13;;;;;;;11.65;6.68;;;3.20;88.30;;;;;;5068154;28;20047;-66
2023/02/06 00:46:40;;;;;;;13.73;7.75;;;3.20;88.30;;;;;;5088322;28;20063;-67
2023/02/06 00:49:06;;;;;;;10.15;6.57;;;3.20;88.20;;;;;;5087311;28;20516;-68
2023/02/06 00:51:35;;;;;;;11.10;6.78;;;3.20;88.10;;;;;;5088114;28;20051;-68
2023/02/06 00:54:02;;;;;;;10.75;6.90;;;3.20;88.00;;;;;;5087611;28;20046;-66
2023/02/06 00:56:30;;;;;;;11.70;7.03;;;3.20;87.90;;;;;;5088157;28;20490;-68
2023/02/06 00:58:57;;;;;;;12.05;7.18;;;3.20;87.90;;;;;;5087637;28;20051;-68
2023/02/06 01:01:25;;;;;;;10.73;6.60;;;3.20;87.90;;;;;;5086841;28;20071;-58
2023/02/06 01:03:52;;;;;;;14.60;7.28;;;3.20;87.90;;;;;;5087854;28;20110;-58
2023/02/06 01:06:18;;;;;;;13.55;6.45;;;3.20;87.80;;;;;;5088534;28;20109;-60
2023/02/06 01:08:46;;;;;;;12.90;7.22;;;3.20;87.80;;;;;;5059547;28;20048;-58
2023/02/06 01:11:14;;;;;;;11.70;6.47;;;3.20;87.70;;;;;;5087713;28;20137;-60
2023/02/06 01:13:43;;;;;;;12.07;6.97;;;3.20;87.70;;;;;;5087361;28;20055;-60
2023/02/06 01:16:11;;;;;;;13.73;7.40;;;3.20;87.70;;;;;;5088499;28;20044;-60
2023/02/06 01:18:37;;;;;;;10.55;6.80;;;3.20;87.80;;;;;;5086776;28;20055;-60
2023/02/06 01:21:08;;;;;;;11.60;7.32;;;3.10;87.90;;;;;;5088270;28;20051;-61
2023/02/06 01:23:35;;;;;;;12.88;6.63;;;3.10;87.90;;;;;;5086314;28;20328;-61
2023/02/06 01:26:05;;;;;;;10.63;7.03;;;3.10;87.90;;;;;;5084644;28;20360;-69
2023/02/06 01:28:36;;;;;;;10.70;6.65;;;3.10;87.90;;;;;;5087173;28;20130;-68
2023/02/06 01:31:09;;;;;;;11.63;6.88;;;3.10;87.90;;;;;;5070125;28;20545;-68
2023/02/06 01:33:36;;;;;;;13.80;7.00;;;3.10;88.00;;;;;;5083888;28;20594;-67
2023/02/06 01:36:03;;;;;;;11.00;6.25;;;3.10;88.10;;;;;;5072676;28;20059;-60
2023/02/06 01:38:32;;;;;;;10.35;6.25;;;3.10;88.10;;;;;;5069296;28;20059;-59
2023/02/06 01:41:00;;;;;;;11.40;6.47;;;3.10;88.20;;;;;;5073793;28;20414;-61
2023/02/06 01:43:30;;;;;;;12.27;6.75;;;3.10;88.20;;;;;;5072191;28;20044;-61
2023/02/06 01:45:57;;;;;;;10.55;6.78;;;3.10;88.20;;;;;;5085716;28;20051;-61
2023/02/06 01:48:31;;;;;;;11.48;6.65;;;3.10;88.10;;;;;;5084801;28;20491;-62
2023/02/06 01:51:00;;;;;;;12.43;6.40;;;3.10;88.10;;;;;;5086062;28;20067;-72
2023/02/06 01:53:28;;;;;;;13.23;7.10;;;3.10;88.10;;;;;;5067021;28;20383;-72
2023/02/06 01:55:56;;;;;;;11.60;6.63;;;3.10;88.00;;;;;;5082805;28;20051;-62
2023/02/06 01:58:29;;;;;;;11.35;6.85;;;3.00;88.10;;;;;;5068066;28;20105;-61
2023/02/06 02:00:57;;;;;;;10.57;6.60;;;3.00;88.00;;;;;;5061581;28;20430;-61
2023/02/06 02:03:26;;;;;;;12.80;6.13;;;3.00;87.90;;;;;;5084122;28;20036;-60
2023/02/06 02:05:57;;;;;;;11.90;6.57;;;3.00;87.80;;;;;;5057773;28;20044;-62
2023/02/06 02:08:30;;;;;;;13.10;7.13;;;3.00;87.80;;;;;;5084582;28;20052;-61
2023/02/06 02:10:59;;;;;;;13.07;6.75;;;3.00;87.70;;;;;;5060495;28;20565;-64
2023/02/06 02:13:26;;;;;;;13.35;7.20;;;3.00;87.70;;;;;;5062302;28;20439;-64
2023/02/06 02:15:59;;;;;;;12.95;6.78;;;3.00;87.70;;;;;;5081130;28;20055;-64
2023/02/06 02:18:53;;;;;;;14.20;6.55;;;3.00;87.70;;;;;;5087762;28;20072;-63
2023/02/06 02:22:04;;;;;;;12.60;6.35;;;3.10;87.70;;;;;;5090369;28;20048;-61
2023/02/06 02:24:50;;;;;;;11.50;5.65;;;3.00;87.60;;;;;;5081007;28;20040;-61
2023/02/06 02:27:44;;;;;;;11.25;5.85;;;3.00;87.70;;;;;;5063606;28;20052;-71
2023/02/06 02:30:38;;;;;;;10.77;5.95;;;3.00;87.60;;;;;;5089565;28;20109;-70
2023/02/06 02:33:40;;;;;;;12.30;6.32;;;3.00;87.60;;;;;;5085421;28;20040;-72
2023/02/06 02:36:14;;;;;;;9.70;5.55;;;3.00;87.70;;;;;;5069442;28;20134;-72
2023/02/06 02:38:53;;;;;;;9.40;5.07;;;3.00;87.70;;;;;;5066476;28;20513;-71
2023/02/06 02:41:28;;;;;;;10.57;5.00;;;3.00;87.70;;;;;;5064842;28;20094;-72
2023/02/06 02:44:04;;;;;;;9.73;5.13;;;3.10;87.80;;;;;;5066761;28;20074;-71
2023/02/06 02:46:35;;;;;;;9.27;5.53;;;3.10;87.70;;;;;;5067419;28;20478;-71
2023/02/06 02:49:04;;;;;;;;;;;3.10;87.70;;;;;;5083817;28;20064;-71
2023/02/06 02:51:33;;;;;;;10.75;4.93;;;3.10;87.70;;;;;;5090231;28;20431;-59
2023/02/06 02:54:01;;;;;;;11.07;5.47;;;3.10;87.70;;;;;;5070819;28;20055;-59
2023/02/06 02:56:29;;;;;;;9.23;5.60;;;3.10;87.70;;;;;;5071700;28;20501;-71
2023/02/06 02:59:00;;;;;;;10.10;5.55;;;3.10;87.80;;;;;;5070375;28;20356;-70
2023/02/06 03:01:32;;;;;;;9.55;5.18;;;3.10;87.90;;;;;;5088604;28;20048;-67
2023/02/06 03:04:05;;;;;;;8.20;4.55;;;3.10;87.90;;;;;;5072621;28;20052;-67
2023/02/06 03:06:41;;;;;;;;;;;3.10;87.90;;;;;;5089194;28;20048;-72
2023/02/06 03:09:20;;;;;;;12.02;4.88;;;3.10;87.90;;;;;;5065115;28;20024;-73
2023/02/06 03:11:55;;;;;;;9.48;5.00;;;3.00;87.80;;;;;;5069708;28;20048;-61
2023/02/06 03:14:28;;;;;;;9.20;4.80;;;3.00;87.80;;;;;;5069621;28;20113;-60
2023/02/06 03:17:02;;;;;;;9.38;4.88;;;3.00;87.80;;;;;;5065771;28;20066;-60
2023/02/06 03:19:33;;;;;;;7.72;4.20;;;3.00;87.90;;;;;;5089708;28;20394;-59
2023/02/06 03:22:03;;;;;;;9.77;4.70;;;2.90;88.00;;;;;;5072844;28;20048;-73
2023/02/06 03:24:32;;;;;;;;;;;3.00;88.00;;;;;;5088620;28;20143;-71
2023/02/06 03:27:03;;;;;;;9.65;4.43;;;3.00;87.90;;;;;;5089440;28;19924;-69
2023/02/06 03:29:34;;;;;;;8.73;4.90;;;3.00;87.90;;;;;;5088717;28;20055;-68
2023/02/06 03:32:05;;;;;;;9.18;4.97;;;3.00;88.00;;;;;;5088088;28;20074;-64
2023/02/06 03:34:39;;;;;;;9.40;5.10;;;3.00;88.10;;;;;;5085930;28;20048;-64
2023/02/06 03:37:08;;;;;;;8.65;4.80;;;3.00;88.10;;;;;;5089125;28;20044;-72
2023/02/06 03:39:36;;;;;;;9.50;4.65;;;3.00;88.10;;;;;;5084442;28;20536;-71
2023/02/06 03:42:05;;;;;;;10.13;5.10;;;3.00;88.10;;;;;;5080788;28;20170;-62
2023/02/06 03:44:35;;;;;;;8.93;4.85;;;3.00;88.10;;;;;;5066321;28;20060;-62
2023/02/06 03:47:03;;;;;;;9.18;4.75;;;3.00;88.20;;;;;;5079821;28;20063;-61
2023/02/06 03:49:32;;;;;;;8.75;4.80;;;3.00;88.10;;;;;;5079526;28;21201;-62
2023/02/06 03:52:05;;;;;;;8.57;4.88;;;3.00;88.20;;;;;;5090362;28;20048;-72
2023/02/06 03:54:36;;;;;;;8.70;4.80;;;3.00;88.20;;;;;;5086679;28;20052;-71
2023/02/06 03:57:05;;;;;;;9.00;4.65;;;3.00;88.20;;;;;;5087029;28;20052;-60
2023/02/06 03:59:32;;;;;;;8.45;4.63;;;3.00;88.20;;;;;;5083595;28;20055;-60
2023/02/06 04:02:02;;;;;;;9.13;4.82;;;2.90;88.30;;;;;;5083810;28;20076;-59
2023/02/06 04:04:32;;;;;;;7.47;4.33;;;2.90;88.30;;;;;;5084858;28;20052;-60
2023/02/06 04:07:02;;;;;;;8.13;4.55;;;3.00;88.20;;;;;;5086952;28;20070;-60
2023/02/06 04:09:29;;;;;;;9.02;4.97;;;3.00;88.30;;;;;;5084418;28;20051;-59
2023/02/06 04:11:57;;;;;;;8.10;4.28;;;2.90;88.30;;;;;;5083364;28;20497;-59
2023/02/06 04:14:24;;;;;;;7.07;4.22;;;3.00;88.20;;;;;;5082466;28;20048;-59
2023/02/06 04:16:51;;;;;;;7.78;4.22;;;3.00;88.20;;;;;;5084543;28;20105;-63
2023/02/06 04:19:18;;;;;;;10.18;5.00;;;2.90;88.20;;;;;;5082627;28;20056;-62
2023/02/06 04:21:45;;;;;;;9.38;5.18;;;2.90;88.30;;;;;;5079812;28;20048;-62
2023/02/06 04:24:11;;;;;;;8.35;4.57;;;2.90;88.30;;;;;;5084832;28;20044;-64
2023/02/06 04:26:38;;;;;;;9.88;4.38;;;2.90;88.30;;;;;;5059120;28;20532;-60
2023/02/06 04:29:06;;;;;;;9.32;4.43;;;2.90;88.40;;;;;;5084812;28;20058;-59
2023/02/06 04:31:33;;;;;;;9.52;5.18;;;2.90;88.30;;;;;;5085247;28;20040;-64
2023/02/06 04:34:00;;;;;;;8.63;4.90;;;2.90;88.30;;;;;;5087980;28;20064;-64
2023/02/06 04:36:27;;;;;;;9.15;4.97;;;2.90;88.20;;;;;;5086728;28;20044;-67
2023/02/06 04:38:54;;;;;;;8.88;4.90;;;2.90;88.20;;;;;;5088098;28;20040;-69
2023/02/06 04:41:21;;;;;;;11.70;6.03;;;2.90;88.20;;;;;;5077643;28;20934;-65
2023/02/06 04:43:48;;;;;;;10.43;5.65;;;3.00;88.20;;;;;;5080100;28;20063;-64
2023/02/06 04:46:16;;;;;;;11.40;6.15;;;2.90;88.30;;;;;;5083579;28;20059;-62
2023/02/06 04:48:43;;;;;;;12.63;6.13;;;2.90;88.30;;;;;;5085177;28;20048;-61
2023/02/06 04:51:10;;;;;;;9.25;5.47;;;3.00;88.20;;;;;;5082103;28;20044;-63
2023/02/06 04:53:37;;;;;;;11.23;6.20;;;3.00;88.20;;;;;;5076273;28;20078;-63
2023/02/06 04:56:05;;;;;;;10.32;5.78;;;2.90;88.20;;;;;;5079106;28;20052;-61
2023/02/06 04:58:32;;;;;;;10.40;5.28;;;2.90;88.30;;;;;;5082449;28;20113;-60
2023/02/06 05:00:59;;;;;;;10.60;5.90;;;3.00;88.30;;;;;;5076174;28;20044;-60
2023/02/06 05:03:28;;;;;;;12.02;6.00;;;2.90;88.30;;;;;;5082765;28;20499;-61
2023/02/06 05:05:56;;;;;;;8.80;5.00;;;2.90;88.30;;;;;;5086361;28;20051;-59
2023/02/06 05:08:23;;;;;;;11.07;5.45;;;2.90;88.40;;;;;;5086534;28;20052;-58
2023/02/06 05:10:51;;;;;;;11.48;5.63;;;2.90;88.40;;;;;;5083000;28;20105;-62
2023/02/06 05:13:18;;;;;;;11.38;6.20;;;2.90;88.40;;;;;;5070429;28;20047;-62
2023/02/06 05:15:44;;;;;;;9.88;5.38;;;2.80;88.40;;;;;;5081580;28;20051;-64
2023/02/06 05:18:11;;;;;;;12.48;5.97;;;2.80;88.40;;;;;;5082257;28;20047;-64
2023/02/06 05:20:40;;;;;;;10.35;6.30;;;2.80;88.40;;;;;;5081555;28;20060;-68
2023/02/06 05:23:06;;;;;;;11.40;5.90;;;2.80;88.40;;;;;;5081182;28;20036;-67
2023/02/06 05:25:35;;;;;;;12.55;6.00;;;2.90;88.40;;;;;;5077727;28;20798;-67
2023/02/06 05:28:05;;;;;;;10.65;5.25;;;2.80;88.40;;;;;;5081707;28;20064;-68
2023/02/06 05:30:32;;;;;;;11.30;5.55;;;2.90;88.30;;;;;;5083078;28;20135;-67
2023/02/06 05:32:59;;;;;;;12.05;5.38;;;2.80;88.20;;;;;;5083323;28;20076;-67
2023/02/06 05:35:25;;;;;;;10.80;6.07;;;2.90;88.20;;;;;;5083318;28;20475;-68
2023/02/06 05:37:54;;;;;;;12.43;5.97;;;2.90;88.20;;;;;;5073486;28;20051;-67
2023/02/06 05:40:21;;;;;;;10.52;5.80;;;2.90;88.10;;;;;;5072424;28;20055;-66
2023/02/06 05:42:47;;;;;;;11.63;6.00;;;2.80;88.10;;;;;;5081957;28;20141;-68
2023/02/06 05:45:14;;;;;;;10.95;5.97;;;2.90;88.20;;;;;;5083745;28;20056;-66
2023/02/06 05:47:42;;;;;;;12.07;6.00;;;2.80;88.20;;;;;;5084433;28;20067;-67
2023/02/06 05:50:10;;;;;;;9.63;6.05;;;2.80;88.40;;;;;;5082769;28;20048;-67
2023/02/06 05:52:36;;;;;;;9.07;5.53;;;2.80;88.30;;;;;;5082741;28;20052;-64
2023/02/06 05:55:06;;;;;;;12.23;6.05;;;2.80;88.30;;;;;;5083965;28;20052;-64
2023/02/06 05:57:33;;;;;;;11.45;6.63;;;2.80;88.30;;;;;;5081458;28;20109;-64
2023/02/06 05:59:59;;;;;;;9.90;6.05;;;2.80;88.30;;;;;;5077333;28;20583;-65
2023/02/06 06:02:26;;;;;;;14.15;6.63;;;2.80;88.30;;;;;;5084295;28;20040;-61
2023/02/06 06:04:53;;;;;;;11.50;6.40;;;2.80;88.30;;;;;;5084427;28;20455;-62
2023/02/06 06:07:20;;;;;;;13.05;7.03;;;2.80;88.40;;;;;;5083099;28;20113;-72
2023/02/06 06:09:48;;;;;;;13.00;6.80;;;2.90;88.30;;;;;;5083054;28;20067;-72
2023/02/06 06:12:16;;;;;;;13.70;7.32;;;2.90;88.30;;;;;;5083843;28;20036;-67
2023/02/06 06:14:43;;;;;;;12.13;7.20;;;2.90;88.30;;;;;;5081719;28;20043;-67
2023/02/06 06:17:10;;;;;;;14.57;7.57;;;2.80;88.30;;;;;;5082249;28;20051;-64
2023/02/06 06:19:37;;;;;;;11.90;6.70;;;2.90;88.30;;;;;;5082857;28;21032;-63
2023/02/06 06:22:04;;;;;;;13.60;7.93;;;2.90;88.30;;;;;;5085759;28;20059;-63
2023/02/06 06:24:31;;;;;;;14.10;8.35;;;2.90;88.30;;;;;;5084544;28;20370;-63
2023/02/06 06:26:58;;;;;;;14.05;8.00;;;2.90;88.30;;;;;;5084619;28;20064;-61
2023/02/06 06:29:27;;;;;;;16.65;8.85;;;2.90;88.30;;;;;;5083095;28;20052;-61
2023/02/06 06:31:54;;;;;;;16.48;8.27;;;2.90;88.50;;;;;;5084524;28;20094;-66
2023/02/06 06:34:21;;;;;;;15.50;8.02;;;2.90;88.40;;;;;;5082632;28;20072;-68
2023/02/06 06:36:47;;;;;;;14.82;8.93;;;2.90;88.40;;;;;;5082753;28;20040;-71
2023/02/06 06:39:14;;;;;;;14.93;8.68;;;2.90;88.30;;;;;;5080188;28;20052;-71
2023/02/06 06:41:41;;;;;;;13.45;7.70;;;2.90;88.30;;;;;;5081413;28;21629;-72
2023/02/06 06:44:14;;;;;;;16.38;9.07;;;2.90;88.30;;;;;;5082354;28;20502;-72
2023/02/06 06:46:42;;;;;;;16.17;8.27;;;2.90;88.40;;;;;;5073231;28;20047;-72
2023/02/06 06:49:09;;;;;;;13.80;8.25;;;2.90;88.40;;;;;;5082492;28;20040;-72
2023/02/06 06:51:36;;;;;;;14.15;8.05;;;2.90;88.40;;;;;;5083545;28;20859;-60
2023/02/06 06:54:03;;;;;;;13.98;7.75;;;2.90;88.50;;;;;;5086880;28;20046;-60
2023/02/06 06:56:30;;;;;;;14.95;8.85;;;2.80;88.50;;;;;;5085352;28;20077;-59
2023/02/06 06:58:56;;;;;;;14.65;8.07;;;2.90;88.50;;;;;;5085329;28;20460;-59
2023/02/06 07:01:23;;;;;;;15.35;7.93;;;2.90;88.50;;;;;;5083917;28;20044;-58
2023/02/06 07:03:51;;;;;;;12.85;7.75;;;2.90;88.50;;;;;;5083139;28;20048;-60
2023/02/06 07:06:18;;;;;;;14.35;7.50;;;2.90;88.40;;;;;;5088957;28;20060;-58
2023/02/06 07:08:45;;;;;;;11.27;7.22;;;2.90;88.30;;;;;;5085699;28;20421;-59
2023/02/06 07:11:14;;;;;;;12.85;6.82;;;2.90;88.20;;;;;;5087212;28;20052;-62
2023/02/06 07:13:42;;;;;;;12.20;6.13;;;2.90;88.20;;;;;;5083919;28;20068;-61
2023/02/06 07:16:08;;;;;;;11.30;5.35;;;2.90;88.30;;;;;;5088421;28;20052;-61
2023/02/06 07:18:37;;;;;;;11.73;6.07;;;2.90;88.30;;;;;;5088714;28;20036;-62
2023/02/06 07:21:07;;;;;;;11.05;6.38;;;2.90;88.40;;;;;;5089372;28;20390;-61
2023/02/06 07:23:35;;;;;;;10.43;5.93;;;2.90;88.40;;;;;;5088578;28;20469;-61
2023/02/06 07:26:02;;;;;;;13.57;6.40;;;2.90;88.50;;;;;;5090538;28;20056;-59
2023/02/06 07:28:30;;;;;;;11.85;6.97;;;2.90;88.50;;;;;;5086654;28;20463;-60
2023/02/06 07:31:00;;;;;;;14.02;7.95;;;2.90;88.50;;;;;;5085157;28;20506;-60
2023/02/06 07:33:27;;;;;;;14.90;7.97;;;3.00;88.50;;;;;;5089795;28;20051;-59
2023/02/06 07:35:54;;;;;;;13.75;7.82;;;3.00;88.60;;;;;;5083972;28;20463;-60
2023/02/06 07:38:22;;;;;;;13.13;7.38;;;3.00;88.50;;;;;;5084734;28;20051;-60
2023/02/06 07:40:49;;;;;;;13.60;7.25;;;3.00;88.40;;;;;;5087852;28;20055;-62
2023/02/06 07:43:16;;;;;;;13.85;7.90;;;3.10;88.30;;;;;;5086441;28;20099;-62
2023/02/06 07:45:43;;;;;;;15.77;8.38;;;3.10;88.30;;;;;;5082684;28;20131;-62
2023/02/06 07:48:10;;;;;;;14.38;7.72;;;3.10;88.30;;;;;;5086737;28;20048;-62
2023/02/06 07:50:37;;;;;;;14.02;7.63;;;3.20;88.20;;;;;;5086361;28;20048;-62
2023/02/06 07:53:06;;;;;;;14.70;8.30;;;3.20;88.20;;;;;;5088416;28;20054;-63
2023/02/06 07:55:37;;;;;;;14.93;8.43;;;3.20;88.20;;;;;;5089130;28;20063;-61
2023/02/06 07:58:04;;;;;;;14.45;8.05;;;3.20;88.10;;;;;;5083712;28;20067;-61
2023/02/06 08:00:31;;;;;;;15.38;8.70;;;3.30;88.10;;;;;;5085142;28;20062;-61
2023/02/06 08:02:58;;;;;;;13.10;7.68;;;3.30;88.00;;;;;;5088940;28;20048;-61
2023/02/06 08:05:24;;;;;;;14.68;7.30;;;3.30;88.00;;;;;;5085929;28;20055;-60
2023/02/06 08:07:52;;;;;;;13.82;7.93;;;3.30;88.00;;;;;;5078758;28;20049;-60
2023/02/06 08:10:18;;;;;;;15.25;7.68;;;3.30;88.10;;;;;;5086550;28;20048;-60
2023/02/06 08:12:47;;;;;;;15.48;7.97;;;3.30;88.20;;;;;;5086656;28;20047;-60
2023/02/06 08:15:14;;;;;;;13.15;7.68;;;3.30;88.10;;;;;;5082409;28;20151;-61
2023/02/06 08:17:41;;;;;;;15.77;8.05;;;3.40;88.20;;;;;;5084898;28;20058;-67
2023/02/06 08:20:09;;;;;;;14.63;8.10;;;3.30;88.10;;;;;;5087456;28;20094;-64
2023/02/06 08:22:36;;;;;;;15.52;8.18;;;3.30;88.10;;;;;;5087734;28;20051;-62
2023/02/06 08:25:03;;;;;;;14.65;7.70;;;3.30;88.20;;;;;;5087429;28;20032;-63
2023/02/06 08:27:30;;;;;;;14.15;7.72;;;3.40;88.20;;;;;;5087409;28;20052;-59
2023/02/06 08:29:58;;;;;;;12.88;7.43;;;3.40;88.10;;;;;;5085545;28;20520;-59
2023/02/06 08:32:25;;;;;;;12.10;6.93;;;3.40;88.10;;;;;;5082112;28;20905;-59
2023/02/06 08:34:52;;;;;;;13.43;7.00;;;3.40;88.00;;;;;;5089079;28;20510;-60
2023/02/06 08:37:19;;;;;;;11.30;6.35;;;3.50;88.00;;;;;;5087566;28;20044;-59
2023/02/06 08:39:47;;;;;;;10.25;6.25;;;3.50;87.90;;;;;;5084423;28;20040;-60
2023/02/06 08:42:14;;;;;;;12.18;6.32;;;3.40;87.90;;;;;;5083336;28;20138;-60
2023/02/06 08:44:41;;;;;;;12.48;6.82;;;3.50;87.90;;;;;;5085736;28;20071;-59
2023/02/06 08:47:09;;;;;;;10.55;6.25;;;3.50;87.90;;;;;;5078922;28;20059;-59
2023/02/06 08:49:36;;;;;;;11.07;6.53;;;3.50;88.00;;;;;;5088525;28;20045;-60
2023/02/06 08:52:02;;;;;;;12.52;6.30;;;3.50;88.10;;;;;;5083597;28;20052;-59
2023/02/06 08:54:29;;;;;;;12.15;6.47;;;3.60;88.00;;;;;;5084211;28;20048;-59
2023/02/06 08:56:59;;;;;;;10.45;5.75;;;3.60;88.00;;;;;;5086289;28;20051;-58
2023/02/06 08:59:28;;;;;;;10.77;6.27;;;3.70;88.10;;;;;;5086415;28;20064;-59
2023/02/06 09:01:55;;;;;;;11.95;6.10;;;3.70;87.90;;;;;;5083941;28;20458;-60
2023/02/06 09:04:23;;;;;;;12.75;6.13;;;3.70;87.90;;;;;;5084169;28;20471;-59
2023/02/06 09:06:50;;;;;;;12.35;6.93;;;3.70;87.80;;;;;;5086468;28;20495;-59
2023/02/06 09:09:18;;;;;;;11.10;6.22;;;3.70;87.90;;;;;;5086614;28;20040;-58
2023/02/06 09:11:45;;;;;;;11.93;6.35;;;3.70;88.00;;;;;;5082713;28;20040;-63
2023/02/06 09:14:14;;;;;;;13.15;6.47;;;3.70;88.00;;;;;;5086235;28;20059;-63
2023/02/06 09:16:42;;;;;;;12.52;6.88;;;3.80;87.80;;;;;;5085691;28;20483;-63
2023/02/06 09:19:11;;;;;;;11.73;6.45;;;3.90;87.80;;;;;;5085432;28;20040;-63
2023/02/06 09:21:39;;;;;;;13.00;7.05;;;3.90;87.90;;;;;;5086195;28;20089;-63
2023/02/06 09:24:10;;;;;;;13.23;7.43;;;3.90;88.00;;;;;;5087054;28;20159;-64
2023/02/06 09:26:40;;;;;;;14.07;7.93;;;3.90;87.70;;;;;;5084995;28;20052;-62
2023/02/06 09:29:08;;;;;;;12.90;8.00;;;4.00;88.00;;;;;;5084243;28;20048;-62
2023/02/06 09:31:37;;;;;;;15.05;8.55;;;4.10;87.90;;;;;;5086587;28;20063;-57
2023/02/06 09:34:04;;;;;;;13.48;7.80;;;4.20;87.90;;;;;;5087992;28;20059;-59
2023/02/06 09:36:33;;;;;;;13.15;8.30;;;4.20;87.80;;;;;;5083893;28;20047;-63
2023/02/06 09:39:03;;;;;;;13.40;7.63;;;4.40;87.90;;;;;;5083345;28;20442;-64
2023/02/06 09:41:33;;;;;;;14.88;8.23;;;4.40;87.60;;;;;;5080577;28;20066;-62
2023/02/06 09:44:06;;;;;;;13.15;8.02;;;4.50;87.40;;;;;;5086909;28;20117;-63
2023/02/06 09:46:35;;;;;;;12.88;7.35;;;4.60;87.20;;;;;;5077878;28;20043;-62
2023/02/06 09:49:08;;;;;;;13.63;7.85;;;4.60;86.70;;;;;;5085376;28;20144;-59
2023/02/06 09:51:45;;;;;;;11.32;6.13;;;4.60;86.40;;;;;;5081582;28;20044;-62
2023/02/06 09:54:21;;;;;;;11.48;5.97;;;4.60;85.90;;;;;;5086139;28;20079;-62
2023/02/06 09:56:54;;;;;;;10.48;5.93;;;4.70;85.80;;;;;;5085295;28;20055;-66
2023/02/06 09:59:29;;;;;;;10.35;5.90;;;4.70;85.60;;;;;;5086717;28;20071;-66
2023/02/06 10:02:05;;;;;;;10.48;5.28;;;4.70;85.80;;;;;;5084144;28;20047;-61
2023/02/06 10:04:44;;;;;;;9.75;4.57;;;4.70;85.30;;;;;;5084859;28;20054;-60
2023/02/06 10:07:23;;;;;;;8.50;4.03;;;4.70;85.00;;;;;;5086037;28;20051;-59
2023/02/06 10:09:56;;;;;;;6.53;3.47;;;4.60;84.80;;;;;;5084786;28;20394;-59
2023/02/06 10:12:28;;;;;;;6.47;3.38;;;4.60;84.50;;;;;;5082619;28;20043;-60
2023/02/06 10:15:00;;;;;;;6.40;2.97;;;4.60;83.80;;;;;;5084816;28;20075;-60
2023/02/06 10:17:31;;;;;;;6.18;2.45;;;4.60;83.70;;;;;;5084415;28;20047;-59
2023/02/06 10:20:03;;;;;;;5.40;2.45;;;4.50;82.90;;;;;;5085424;28;20105;-59
2023/02/06 10:22:36;;;;;;;3.85;2.10;;;4.50;82.70;;;;;;5083144;28;20052;-63
2023/02/06 10:25:21;;;;;;;4.63;2.03;;;4.50;83.70;;;;;;5085149;28;20052;-64
2023/02/06 10:27:54;;;;;;;5.28;2.30;;;4.40;82.10;;;;;;5084604;28;20072;-63
2023/02/06 10:30:31;;;;;;;5.70;1.92;;;4.40;83.40;;;;;;5085593;28;20043;-64
2023/02/06 10:33:03;;;;;;;3.92;2.10;;;4.40;83.40;;;;;;5085166;28;20728;-64
2023/02/06 10:35:42;;;;;;;3.83;1.98;;;4.40;82.90;;;;;;5086188;28;20068;-61
2023/02/06 10:38:46;;;;;;;4.60;1.67;;;4.40;82.70;;;;;;5074961;28;20122;-61
2023/02/06 10:41:23;;;;;;;6.28;2.28;;;4.40;82.50;;;;;;5090388;28;20521;-61
2023/02/06 10:43:56;;;;;;;4.72;1.98;;;4.40;82.00;;;;;;5087160;28;20040;-61
2023/02/06 10:46:37;;;;;;;4.38;2.20;;;4.50;81.70;;;;;;5076250;28;20375;-64
2023/02/06 10:49:12;;;;;;;4.65;1.50;;;4.50;81.30;;;;;;5088377;28;20044;-63
2023/02/06 10:51:41;;;;;;;4.95;1.77;;;4.50;81.70;;;;;;5089636;28;20139;-67
2023/02/06 10:54:15;;;;;;;4.93;1.90;;;4.50;82.20;;;;;;5087301;28;20142;-66
2023/02/06 10:56:45;;;;;;;4.30;1.70;;;4.50;81.90;;;;;;5087222;28;20097;-59
2023/02/06 10:59:22;;;;;;;4.68;1.35;;;4.40;81.50;;;;;;5088543;28;20048;-59
2023/02/06 11:01:52;;;;;;;4.30;1.48;;;4.40;80.20;;;;;;5086797;28;20048;-65
2023/02/06 11:04:27;;;;;;;5.38;1.90;;;4.40;81.30;;;;;;5089072;28;20052;-64
2023/02/06 11:07:00;;;;;;;2.17;1.10;;;4.40;80.00;;;;;;5090063;28;20865;-64
2023/02/06 11:09:28;;;;;;;6.30;2.17;;;4.40;79.20;;;;;;5085480;28;20040;-63
2023/02/06 11:11:58;;;;;;;4.13;1.58;;;4.40;79.00;;;;;;5088145;28;20047;-61
2023/02/06 11:14:28;;;;;;;4.35;1.92;;;4.50;80.40;;;;;;5087028;28;20044;-62
2023/02/06 11:16:58;;;;;;;4.53;1.67;;;4.60;79.20;;;;;;5090699;28;20872;-63
2023/02/06 11:19:29;;;;;;;7.80;1.85;;;4.60;79.00;;;;;;5087769;28;20040;-63
2023/02/06 11:22:07;;;;;;;4.07;2.00;;;4.70;79.10;;;;;;5090228;28;20562;-60
2023/02/06 11:24:35;;;;;;;4.70;2.13;;;4.70;78.80;;;;;;5081859;28;20052;-61
2023/02/06 11:27:14;;;;;;;6.32;2.72;;;4.70;77.80;;;;;;5089203;28;20055;-61
2023/02/06 11:29:47;;;;;;;4.20;1.85;;;4.70;77.00;;;;;;5085233;28;20056;-61
2023/02/06 11:32:29;;;;;;;4.72;1.88;;;4.70;76.80;;;;;;5088598;28;20044;-64
2023/02/06 11:35:00;;;;;;;4.10;1.90;;;4.70;77.90;;;;;;5091190;28;20567;-64
2023/02/06 11:37:32;;;;;;;4.32;1.80;;;4.70;78.30;;;;;;5083823;28;20044;-68
2023/02/06 11:40:25;;;;;;;4.68;2.10;;;4.70;78.30;;;;;;5088527;28;20055;-68
2023/02/06 11:43:12;;;;;;;5.43;1.80;;;4.70;78.30;;;;;;5067064;28;20036;-72
2023/02/06 11:45:39;;;;;;;4.93;2.05;;;4.70;77.10;;;;;;5079874;28;20052;-65
2023/02/06 11:48:06;;;;;;;5.22;2.13;;;4.70;77.10;;;;;;5086137;28;20478;-65
2023/02/06 11:50:35;;;;;;;4.85;2.13;;;4.70;77.40;;;;;;5085891;28;20044;-62
2023/02/06 11:53:09;;;;;;;5.85;2.08;;;4.70;77.40;;;;;;5090452;28;20101;-62
2023/02/06 11:55:38;;;;;;;4.68;2.00;;;4.80;77.30;;;;;;5087878;28;20056;-64
2023/02/06 11:58:24;;;;;;;4.43;1.83;;;4.80;77.10;;;;;;5087649;28;20047;-65
2023/02/06 12:00:58;;;;;;;5.07;2.10;;;4.80;77.40;;;;;;5086554;28;20054;-67
2023/02/06 12:03:32;;;;;;;4.22;2.20;;;4.90;76.80;;;;;;5089854;28;20101;-67
2023/02/06 12:06:03;;;;;;;3.17;1.70;;;4.90;76.30;;;;;;5087781;28;20045;-67
2023/02/06 12:08:40;;;;;;;5.80;2.00;;;5.00;76.20;;;;;;5085150;28;20406;-67
2023/02/06 12:11:14;;;;;;;6.43;2.17;;;5.00;76.60;;;;;;5086322;28;20512;-68
2023/02/06 12:13:47;;;;;;;3.72;1.90;;;5.00;76.80;;;;;;5088887;28;20059;-67
2023/02/06 12:16:15;;;;;;;4.80;2.00;;;5.10;75.70;;;;;;5089260;28;20395;-61
2023/02/06 12:18:45;;;;;;;4.80;2.05;;;5.10;76.10;;;;;;5085176;28;20047;-61
2023/02/06 12:21:15;;;;;;;5.53;2.13;;;5.20;75.80;;;;;;5089900;28;20040;-64
2023/02/06 12:23:43;;;;;;;;;;;5.10;76.30;;;;;;5087826;28;20109;-64
2023/02/06 12:26:14;;;;;;;6.35;1.92;;;5.10;75.10;;;;;;5087926;28;19927;-65
2023/02/06 12:28:52;;;;;;;4.95;2.00;;;5.20;75.80;;;;;;5083556;28;20056;-65
2023/02/06 12:31:23;;;;;;;5.88;1.83;;;5.20;74.90;;;;;;5086166;28;20051;-64
2023/02/06 12:33:52;;;;;;;3.20;1.50;;;5.20;75.30;;;;;;5087695;28;20052;-65
2023/02/06 12:36:24;;;;;;;4.28;1.85;;;5.20;75.40;;;;;;5086437;28;20262;-67
2023/02/06 12:38:57;;;;;;;4.10;1.85;;;5.20;75.10;;;;;;5082465;28;20499;-68
2023/02/06 12:41:39;;;;;;;6.93;2.10;;;5.20;75.00;;;;;;5085585;28;20044;-59
2023/02/06 12:44:18;;;;;;;5.65;1.85;;;5.20;75.30;;;;;;5085441;28;20051;-63
2023/02/06 12:46:51;;;;;;;5.85;1.92;;;5.30;75.30;;;;;;5083776;28;20136;-71
2023/02/06 12:49:24;;;;;;;4.55;1.90;;;5.30;75.60;;;;;;5085665;28;20043;-71
2023/02/06 12:51:58;;;;;;;4.95;1.70;;;5.20;75.30;;;;;;5087663;28;20044;-65
2023/02/06 12:54:29;;;;;;;5.72;2.10;;;5.20;74.90;;;;;;5085017;28;20044;-64
2023/02/06 12:57:03;;;;;;;3.92;1.58;;;5.10;75.20;;;;;;5085126;28;20048;-62
2023/02/06 12:59:51;;;;;;;5.68;1.80;;;5.00;75.50;;;;;;5081020;28;20048;-62
2023/02/06 13:02:28;;;;;;;4.28;1.92;;;5.00;76.20;;;;;;5087489;28;20043;-64
2023/02/06 13:04:55;;;;;;;5.75;1.80;;;5.00;75.70;;;;;;5086441;28;20900;-65
2023/02/06 13:07:25;;;;;;;5.22;1.92;;;5.00;75.70;;;;;;5082538;28;20044;-61
2023/02/06 13:09:54;;;;;;;6.88;1.92;;;5.00;75.30;;;;;;5085658;28;20047;-62